Time;durP1;ratioP1;P1;durP2;ratioP2;P2;SDS_P1;SDS_P2;PMS_P1;PMS_P2;Temp;Humidity;BMP_temperature;BMP_pressure;BME280_temperature;BME280_humidity;BME280_pressure;Samples;Min_cycle;Max_cycle;Signal;HPM_P1;HPM_P2
2022/07/14 00:01:06;;;;;;;8.70;3.28;;;;;;;18.68;65.64;102046.13;5025408;28;20024;-59
2022/07/14 00:03:32;;;;;;;10.70;3.50;;;;;;;18.59;66.02;102041.66;5026846;28;20037;-59
2022/07/14 00:05:57;;;;;;;11.52;3.20;;;;;;;18.56;65.91;102034.56;5024444;28;20100;-60
2022/07/14 00:08:22;;;;;;;9.10;3.05;;;;;;;18.54;66.07;102041.63;5022592;28;20029;-61
2022/07/14 00:10:48;;;;;;;10.32;3.50;;;;;;;18.49;66.01;102056.50;5009343;28;20378;-60
2022/07/14 00:13:13;;;;;;;9.23;3.97;;;;;;;18.45;65.89;102051.19;5020932;28;20035;-60
2022/07/14 00:15:38;;;;;;;9.43;3.53;;;;;;;18.39;66.03;102050.28;5026486;28;20056;-60
2022/07/14 00:18:04;;;;;;;14.30;3.70;;;;;;;18.31;66.69;102029.94;5027757;28;20473;-66
2022/07/14 00:20:29;;;;;;;10.80;3.30;;;;;;;18.33;66.59;102023.78;5027525;28;20166;-66
2022/07/14 00:22:58;;;;;;;8.95;3.30;;;;;;;18.29;67.16;102018.47;5026348;28;20033;-67
2022/07/14 00:25:26;;;;;;;8.02;3.40;;;;;;;18.25;67.08;102025.50;5028813;28;20033;-66
2022/07/14 00:27:52;;;;;;;8.18;3.20;;;;;;;18.20;66.76;102008.72;5033992;28;20277;-66
2022/07/14 00:30:18;;;;;;;8.50;2.92;;;;;;;18.15;67.42;102008.66;5029528;28;20032;-66
2022/07/14 00:32:43;;;;;;;10.77;3.53;;;;;;;18.13;67.32;102018.28;5029499;28;20037;-66
2022/07/14 00:35:09;;;;;;;7.35;3.25;;;;;;;18.07;67.43;102020.88;5026811;28;20029;-66
2022/07/14 00:37:35;;;;;;;6.60;2.90;;;;;;;18.03;67.39;102030.53;5028477;28;20033;-66
2022/07/14 00:40:03;;;;;;;6.85;3.08;;;;;;;18.01;67.01;102034.00;5025124;28;20089;-66
2022/07/14 00:42:32;;;;;;;11.60;3.40;;;;;;;17.95;67.72;102032.16;5017278;28;20029;-67
2022/07/14 00:45:03;;;;;;;11.02;3.47;;;;;;;17.95;68.24;102040.09;5023366;28;20065;-66
2022/07/14 00:47:29;;;;;;;10.35;3.83;;;;;;;17.91;68.41;102040.91;5024786;28;20083;-67
2022/07/14 00:49:55;;;;;;;9.82;3.42;;;;;;;17.88;68.56;102027.66;5025208;28;20022;-67
2022/07/14 00:52:23;;;;;;;11.80;3.55;;;;;;;17.83;68.55;102024.06;5025748;28;20041;-67
2022/07/14 00:54:48;;;;;;;10.07;3.50;;;;;;;17.79;68.84;102015.25;5026974;28;20484;-67
2022/07/14 00:57:14;;;;;;;8.93;3.40;;;;;;;17.78;68.67;102016.09;5028289;28;21363;-66
2022/07/14 00:59:39;;;;;;;11.27;3.88;;;;;;;17.76;69.22;102027.53;5027384;28;21623;-67
2022/07/14 01:02:05;;;;;;;10.48;4.47;;;;;;;17.74;68.95;102035.38;5026787;28;20025;-67
2022/07/14 01:04:30;;;;;;;10.90;3.70;;;;;;;17.70;69.36;102030.97;5027318;28;20025;-66
2022/07/14 01:06:55;;;;;;;10.80;4.30;;;;;;;17.68;69.65;102035.31;5027103;28;20575;-66
2022/07/14 01:09:21;;;;;;;7.82;3.30;;;;;;;17.61;69.80;102033.44;5021639;28;20108;-66
2022/07/14 01:11:46;;;;;;;12.95;4.00;;;;;;;17.60;69.59;102043.13;5020962;28;20049;-66
2022/07/14 01:14:12;;;;;;;10.18;3.90;;;;;;;17.60;70.03;102040.47;5018507;28;20554;-66
2022/07/14 01:16:37;;;;;;;10.85;4.47;;;;;;;17.60;69.79;102042.22;5018172;28;20030;-66
2022/07/14 01:19:02;;;;;;;9.48;3.40;;;;;;;17.56;69.59;102038.66;5018758;28;20133;-66
2022/07/14 01:21:28;;;;;;;7.22;3.10;;;;;;;17.56;69.39;102036.91;5029528;28;20033;-66
2022/07/14 01:23:53;;;;;;;9.30;3.80;;;;;;;17.58;69.58;102051.88;5018427;28;20036;-66
2022/07/14 01:26:18;;;;;;;9.23;3.78;;;;;;;17.56;69.48;102062.38;5017259;28;20037;-66
2022/07/14 01:28:43;;;;;;;8.60;3.58;;;;;;;17.56;69.29;102059.75;5017395;28;20065;-67
2022/07/14 01:31:09;;;;;;;9.10;3.70;;;;;;;17.54;69.32;102056.22;5018082;28;20659;-67
2022/07/14 01:33:34;;;;;;;8.70;4.18;;;;;;;17.50;70.30;102059.66;5024002;28;20544;-66
2022/07/14 01:35:59;;;;;;;12.65;3.78;;;;;;;17.46;70.06;102056.09;5025003;28;20052;-67
2022/07/14 01:38:24;;;;;;;11.48;3.70;;;;;;;17.42;70.08;102051.63;5025295;28;20033;-66
2022/07/14 01:40:50;;;;;;;11.38;4.10;;;;;;;17.38;70.73;102048.09;5026766;28;20034;-67
2022/07/14 01:43:15;;;;;;;8.48;3.85;;;;;;;17.37;70.04;102059.47;5026188;28;20026;-66
2022/07/14 01:45:41;;;;;;;9.32;3.53;;;;;;;17.35;70.29;102061.22;5027020;28;20029;-66
2022/07/14 01:48:06;;;;;;;10.55;3.65;;;;;;;17.33;70.22;102051.50;5027988;28;20049;-66
2022/07/14 01:50:31;;;;;;;8.13;3.70;;;;;;;17.29;70.98;102054.94;5026698;28;20026;-66
2022/07/14 01:52:57;;;;;;;10.73;3.88;;;;;;;17.26;71.23;102050.50;5026349;28;20484;-66
2022/07/14 01:55:22;;;;;;;9.75;4.22;;;;;;;17.18;71.49;102047.78;5028451;28;20025;-66
2022/07/14 01:57:47;;;;;;;9.20;4.05;;;;;;;17.15;71.79;102039.84;5031388;28;20477;-66
2022/07/14 02:00:13;;;;;;;9.95;3.90;;;;;;;17.16;71.51;102038.97;5029230;28;20163;-66
2022/07/14 02:02:38;;;;;;;10.80;3.83;;;;;;;17.11;72.09;102040.63;5027764;28;20484;-67
2022/07/14 02:05:04;;;;;;;11.95;4.82;;;;;;;17.10;72.78;102036.22;5029230;28;20037;-67
2022/07/14 02:07:29;;;;;;;11.38;4.63;;;;;;;17.13;72.38;102048.56;5028339;28;20037;-67
2022/07/14 02:12:38;;;;;;;9.98;3.80;;;;;;;17.11;72.15;102029.22;5027739;28;20099;-67
2022/07/14 02:15:05;;;;;;;11.20;4.38;;;;;;;17.10;71.90;102033.59;5031954;28;20451;-67
2022/07/14 02:17:30;;;;;;;12.23;4.13;;;;;;;17.10;72.50;102038.84;5017837;28;20057;-67
2022/07/14 02:19:55;;;;;;;11.10;4.38;;;;;;;17.11;72.01;102034.50;5033745;28;20057;-67
2022/07/14 02:22:20;;;;;;;10.30;4.22;;;;;;;17.09;72.05;102031.84;5029431;28;20052;-67
2022/07/14 02:24:46;;;;;;;11.60;4.20;;;;;;;17.06;72.06;102037.06;5032135;28;20032;-67
2022/07/14 02:27:11;;;;;;;12.30;4.13;;;;;;;17.04;72.38;102044.91;5030379;28;20044;-67
2022/07/14 02:29:36;;;;;;;11.95;4.30;;;;;;;17.03;72.24;102044.88;5025981;28;20079;-67
2022/07/14 02:32:02;;;;;;;13.68;4.57;;;;;;;17.00;71.85;102039.56;5028492;28;20025;-67
2022/07/14 02:34:27;;;;;;;12.00;4.45;;;;;;;17.00;71.54;102042.22;5031103;28;20043;-67
2022/07/14 02:36:52;;;;;;;13.73;4.80;;;;;;;16.98;71.93;102036.03;5033378;28;20136;-67
2022/07/14 02:39:17;;;;;;;10.63;4.53;;;;;;;16.94;72.19;102047.38;5026503;28;20500;-67
2022/07/14 02:41:43;;;;;;;12.65;4.45;;;;;;;16.91;71.94;102042.06;5029281;28;20044;-66
2022/07/14 02:44:09;;;;;;;10.32;4.60;;;;;;;16.86;72.18;102027.03;5029837;28;20026;-67
2022/07/14 02:46:35;;;;;;;14.38;5.03;;;;;;;16.84;71.98;102026.16;5029132;28;20468;-67
2022/07/14 02:49:00;;;;;;;13.63;5.00;;;;;;;16.82;71.88;102021.72;5027992;28;20029;-67
2022/07/14 02:51:25;;;;;;;11.60;4.60;;;;;;;16.80;71.99;102024.31;5031669;28;20035;-67
2022/07/14 02:53:51;;;;;;;10.52;4.43;;;;;;;16.75;72.40;102025.09;5028514;28;20450;-67
2022/07/14 02:56:16;;;;;;;10.52;4.65;;;;;;;16.70;72.35;102022.41;5030456;28;20117;-65
2022/07/14 02:58:42;;;;;;;12.48;4.90;;;;;;;16.69;71.76;102017.97;5031840;28;20026;-64
2022/07/14 03:01:08;;;;;;;10.85;4.60;;;;;;;16.66;71.82;102023.19;5028761;28;20052;-65
2022/07/14 03:03:35;;;;;;;10.63;4.90;;;;;;;16.66;71.65;102017.94;5028056;28;20033;-67
2022/07/14 03:06:11;;;;;;;10.45;4.40;;;;;;;16.64;70.97;102025.81;5030399;28;20021;-66
2022/07/14 03:08:37;;;;;;;11.73;4.93;;;;;;;16.58;71.10;102019.53;5030516;28;20056;-68
2022/07/14 03:11:04;;;;;;;12.07;4.95;;;;;;;16.57;71.00;102013.41;5024908;28;20025;-66
2022/07/14 03:13:29;;;;;;;9.20;4.53;;;;;;;16.56;71.53;102013.38;5028999;28;20029;-65
2022/07/14 03:15:54;;;;;;;14.98;4.93;;;;;;;16.54;71.33;102012.44;5025859;28;20558;-65
2022/07/14 03:18:20;;;;;;;14.18;5.70;;;;;;;16.48;71.03;102002.69;5030073;28;20041;-65
2022/07/14 03:20:45;;;;;;;11.73;5.43;;;;;;;16.44;71.82;102000.88;5022450;28;20037;-66
2022/07/14 03:23:10;;;;;;;13.93;5.10;;;;;;;16.41;72.11;101999.09;5033199;28;20061;-66
2022/07/14 03:25:36;;;;;;;13.63;5.45;;;;;;;16.42;71.78;101994.69;5026245;28;20104;-66
2022/07/14 03:28:01;;;;;;;14.52;5.50;;;;;;;16.37;72.27;101989.38;5030968;28;20045;-66
2022/07/14 03:30:26;;;;;;;14.48;5.50;;;;;;;16.34;72.32;101991.94;5028603;28;20056;-66
2022/07/14 03:32:52;;;;;;;14.80;5.20;;;;;;;16.33;71.77;101984.91;5027908;28;20075;-66
2022/07/14 03:35:17;;;;;;;12.43;5.55;;;;;;;16.31;72.37;101984.88;5028784;28;20021;-66
2022/07/14 03:37:43;;;;;;;14.48;5.30;;;;;;;16.26;73.01;101983.00;5029193;28;20030;-66
2022/07/14 03:40:09;;;;;;;11.93;5.05;;;;;;;16.25;72.61;101992.66;5028414;28;20022;-66
2022/07/14 03:42:34;;;;;;;13.75;5.07;;;;;;;16.24;72.31;101990.00;5025519;28;20080;-66
2022/07/14 03:44:59;;;;;;;10.98;5.22;;;;;;;16.23;71.99;101998.75;5028435;28;20484;-67
2022/07/14 03:47:25;;;;;;;16.70;5.30;;;;;;;16.23;72.20;101988.22;5028865;28;20029;-66
2022/07/14 03:49:50;;;;;;;17.67;5.70;;;;;;;16.20;72.35;101982.91;5026951;28;20979;-66
2022/07/14 03:52:15;;;;;;;12.50;5.32;;;;;;;16.19;72.23;101989.00;5027686;28;20135;-66
2022/07/14 03:54:44;;;;;;;11.90;5.25;;;;;;;16.13;72.10;102005.56;5032823;28;20440;-65
2022/07/14 03:57:11;;;;;;;17.70;5.80;;;;;;;16.12;71.71;102014.28;5028870;28;20087;-67
2022/07/14 03:59:40;;;;;;;13.45;5.07;;;;;;;16.12;71.34;102014.28;5025557;28;20391;-66
2022/07/14 04:02:05;;;;;;;;;;;;;;;16.16;70.56;102011.78;5027385;28;20025;-66
2022/07/14 04:04:31;;;;;;;13.73;5.30;;;;;;;16.09;71.68;102019.50;5023761;28;19920;-67
2022/07/14 04:06:56;;;;;;;17.35;5.80;;;;;;;16.06;71.74;102028.25;5030049;28;20029;-66
2022/07/14 04:09:22;;;;;;;15.20;5.53;;;;;;;16.03;72.08;102017.63;5027567;28;20041;-67
2022/07/14 04:11:47;;;;;;;14.10;6.05;;;;;;;16.02;72.43;102014.97;5028245;28;20025;-66
2022/07/14 04:14:12;;;;;;;11.63;5.13;;;;;;;16.00;72.71;102012.31;5024616;28;20547;-66
2022/07/14 04:16:39;;;;;;;15.82;5.97;;;;;;;15.98;73.05;102014.03;5027181;28;20037;-66
2022/07/14 04:19:06;;;;;;;16.10;6.20;;;;;;;15.95;73.11;102014.84;5028358;28;20035;-66
2022/07/14 04:21:31;;;;;;;12.85;5.88;;;;;;;15.97;73.05;102018.44;5026450;28;20033;-66
2022/07/14 04:23:57;;;;;;;14.52;5.80;;;;;;;15.96;72.89;102013.09;5027630;28;20091;-66
2022/07/14 04:26:22;;;;;;;16.77;6.35;;;;;;;15.90;73.22;102011.28;5030449;28;20103;-66
2022/07/14 04:28:47;;;;;;;14.05;7.00;;;;;;;15.90;73.81;102002.47;5028737;28;20045;-66
2022/07/14 04:31:12;;;;;;;16.10;6.68;;;;;;;15.88;73.23;102006.84;5043863;28;20045;-66
2022/07/14 04:33:38;;;;;;;16.27;5.95;;;;;;;15.82;73.86;102008.47;5025798;28;20029;-66
2022/07/14 04:36:04;;;;;;;14.88;5.88;;;;;;;15.82;73.83;102012.84;5028169;28;20029;-66
2022/07/14 04:38:29;;;;;;;13.50;6.60;;;;;;;15.80;73.61;102012.81;5024311;28;20040;-66
2022/07/14 04:40:55;;;;;;;13.80;6.18;;;;;;;15.76;73.92;101999.56;5029286;28;20021;-66
2022/07/14 04:43:20;;;;;;;15.50;5.82;;;;;;;15.76;73.95;102004.81;5026680;28;20449;-66
2022/07/14 04:45:46;;;;;;;14.98;6.13;;;;;;;15.74;74.19;101998.63;5027404;28;20021;-67
2022/07/14 04:48:12;;;;;;;13.70;6.15;;;;;;;15.72;74.40;102006.47;5024852;28;20032;-66
2022/07/14 04:53:21;;;;;;;16.08;6.40;;;;;;;15.71;74.40;102006.44;5027293;28;20408;-66
2022/07/14 04:55:46;;;;;;;15.60;6.55;;;;;;;15.69;74.48;102006.41;5029170;28;20026;-66
2022/07/14 04:58:11;;;;;;;12.23;6.47;;;;;;;15.69;74.37;102001.16;5024966;28;20036;-66
2022/07/14 05:00:37;;;;;;;15.63;6.13;;;;;;;15.70;74.44;101999.41;5027080;28;20044;-66
2022/07/14 05:03:03;;;;;;;12.90;5.68;;;;;;;15.68;74.17;101998.50;5028931;28;20385;-67
2022/07/14 05:05:28;;;;;;;16.25;7.00;;;;;;;15.67;75.16;102012.47;5027574;28;20481;-65
2022/07/14 05:07:54;;;;;;;17.63;6.82;;;;;;;15.67;74.98;102016.00;5028322;28;20079;-65
2022/07/14 05:10:19;;;;;;;16.85;6.93;;;;;;;15.69;75.44;102019.53;5029749;28;20029;-65
2022/07/14 05:12:45;;;;;;;13.57;6.65;;;;;;;15.70;75.33;102020.41;5024342;28;20038;-66
2022/07/14 05:15:10;;;;;;;13.88;6.55;;;;;;;15.71;75.06;102025.72;5028728;28;20467;-67
2022/07/14 05:17:35;;;;;;;15.32;7.78;;;;;;;15.72;76.28;102027.50;5027615;28;20111;-65
2022/07/14 05:20:01;;;;;;;18.40;7.90;;;;;;;15.73;76.18;102025.72;5026342;28;20125;-66
2022/07/14 05:22:27;;;;;;;16.08;7.50;;;;;;;15.74;76.01;102023.16;5025073;28;20307;-66
2022/07/14 05:24:53;;;;;;;17.52;7.70;;;;;;;15.74;76.50;102015.28;5025952;28;20036;-66
2022/07/14 05:27:18;;;;;;;16.65;7.85;;;;;;;15.76;76.69;102018.81;5025434;28;20053;-66
2022/07/14 05:29:44;;;;;;;20.05;7.88;;;;;;;15.79;76.41;102018.03;5025316;28;20025;-67
2022/07/14 05:32:10;;;;;;;17.90;6.97;;;;;;;15.81;76.46;102021.56;5028470;28;20030;-66
2022/07/14 05:34:42;;;;;;;17.70;7.75;;;;;;;15.82;76.12;102018.97;5028228;28;20034;-66
2022/07/14 05:37:08;;;;;;;16.45;7.38;;;;;;;15.82;76.91;102013.72;5025662;28;20026;-66
2022/07/14 05:39:33;;;;;;;17.33;7.13;;;;;;;15.84;77.76;102012.88;5031558;28;20033;-66
2022/07/14 05:41:59;;;;;;;20.48;7.15;;;;;;;15.86;77.06;102013.78;5031285;28;20045;-66
2022/07/14 05:44:24;;;;;;;16.60;7.07;;;;;;;15.89;77.41;102024.34;5026887;28;20036;-66
2022/07/14 05:46:49;;;;;;;16.30;6.78;;;;;;;15.93;76.81;102023.56;5029268;28;20749;-66
2022/07/14 05:49:14;;;;;;;18.08;7.00;;;;;;;15.94;77.41;102025.34;5025284;28;20036;-67
2022/07/14 05:51:40;;;;;;;19.13;7.60;;;;;;;15.97;77.43;102033.28;5031564;28;20499;-66
2022/07/14 05:54:05;;;;;;;16.60;7.50;;;;;;;15.98;77.78;102025.44;5030502;28;20043;-67
2022/07/14 05:56:30;;;;;;;16.83;7.32;;;;;;;16.01;76.97;102024.63;5029063;28;20036;-66
2022/07/14 05:58:56;;;;;;;19.90;7.45;;;;;;;16.05;76.26;102020.28;5026911;28;20032;-66
2022/07/14 06:01:21;;;;;;;15.25;7.50;;;;;;;16.08;77.15;102016.00;5032899;28;20048;-66
2022/07/14 06:03:53;;;;;;;22.13;7.75;;;;;;;16.13;76.58;102011.72;5030846;28;20488;-65
2022/07/14 06:06:20;;;;;;;22.08;7.40;;;;;;;16.18;77.67;102011.81;5029619;28;20021;-66
2022/07/14 06:08:45;;;;;;;21.73;8.18;;;;;;;16.21;76.72;102011.88;5031206;28;20033;-66
2022/07/14 06:11:10;;;;;;;19.20;7.80;;;;;;;16.25;77.60;102021.59;5030275;28;20396;-66
2022/07/14 06:13:35;;;;;;;18.92;8.18;;;;;;;16.29;77.10;102025.16;5028966;28;20039;-66
2022/07/14 06:16:01;;;;;;;18.40;7.75;;;;;;;16.33;76.54;102027.84;5028673;28;20036;-66
2022/07/14 06:18:27;;;;;;;17.35;7.55;;;;;;;16.39;75.69;102020.94;5029276;28;20036;-66
2022/07/14 06:20:53;;;;;;;21.10;7.70;;;;;;;16.42;75.44;102021.88;5026707;28;20503;-66
2022/07/14 06:23:18;;;;;;;20.65;8.07;;;;;;;16.48;76.11;102021.09;5030413;28;20025;-66
2022/07/14 06:25:43;;;;;;;22.63;8.38;;;;;;;16.54;76.37;102012.44;5029182;28;20079;-66
2022/07/14 06:28:09;;;;;;;21.70;7.88;;;;;;;16.59;76.22;102001.13;5030567;28;20139;-66
2022/07/14 06:30:35;;;;;;;23.02;7.72;;;;;;;16.64;76.01;102009.09;5027916;28;20496;-67
2022/07/14 06:33:01;;;;;;;21.25;7.78;;;;;;;16.71;76.75;102012.75;5030111;28;20025;-66
2022/07/14 06:35:26;;;;;;;20.95;7.97;;;;;;;16.77;76.25;102024.28;5023100;28;20033;-67
2022/07/14 06:37:52;;;;;;;18.80;7.70;;;;;;;16.84;75.28;102025.25;5022363;28;20558;-66
2022/07/14 06:40:18;;;;;;;14.35;7.22;;;;;;;16.89;76.50;102023.63;5029132;28;20112;-66
2022/07/14 06:42:43;;;;;;;23.48;7.63;;;;;;;16.96;74.87;102024.59;5029285;28;20500;-65
2022/07/14 06:45:10;;;;;;;20.73;7.72;;;;;;;16.98;76.28;102026.38;5029059;28;20396;-66
2022/07/14 06:47:35;;;;;;;21.67;8.00;;;;;;;17.03;75.45;102021.19;5023791;28;20060;-66
2022/07/14 06:50:01;;;;;;;19.17;7.85;;;;;;;17.08;74.71;102014.25;5028600;28;20484;-66
2022/07/14 06:52:27;;;;;;;19.35;7.80;;;;;;;17.15;75.07;102024.03;5031297;28;20831;-66
2022/07/14 06:54:53;;;;;;;22.25;9.00;;;;;;;17.20;75.28;102024.97;5032765;28;20037;-66
2022/07/14 06:57:19;;;;;;;22.50;8.27;;;;;;;17.26;74.94;102018.03;5025684;28;20029;-65
2022/07/14 06:59:45;;;;;;;15.85;7.90;;;;;;;17.33;74.52;102012.00;5027177;28;20378;-65
2022/07/14 07:02:10;;;;;;;19.08;8.30;;;;;;;17.36;73.45;102009.41;5031752;28;20111;-67
2022/07/14 07:04:35;;;;;;;20.20;8.10;;;;;;;17.40;72.86;102005.94;5020028;28;20164;-66
2022/07/14 07:07:01;;;;;;;22.08;7.38;;;;;;;17.46;73.78;102006.03;5019693;28;20503;-60
2022/07/14 07:09:26;;;;;;;19.77;7.45;;;;;;;17.53;75.03;102004.38;5021863;28;20108;-60
2022/07/14 07:11:51;;;;;;;17.08;7.20;;;;;;;17.58;72.40;102013.19;5021765;28;21481;-59
2022/07/14 07:14:18;;;;;;;19.80;7.53;;;;;;;17.62;72.66;102008.88;5016901;28;20445;-59
2022/07/14 07:16:49;;;;;;;21.08;7.40;;;;;;;17.67;71.85;102021.25;5018558;28;20036;-59
2022/07/14 07:19:15;;;;;;;19.98;7.38;;;;;;;17.70;72.76;102009.88;5019606;28;20037;-59
2022/07/14 07:21:41;;;;;;;15.82;6.65;;;;;;;17.75;70.83;102002.88;5019545;28;20384;-60
2022/07/14 07:24:07;;;;;;;19.90;6.70;;;;;;;17.82;70.87;102010.00;5028836;28;20396;-60
2022/07/14 07:26:39;;;;;;;13.05;6.32;;;;;;;17.87;70.90;102008.31;5027556;28;20446;-60
2022/07/14 07:29:05;;;;;;;17.52;6.65;;;;;;;17.96;72.18;102004.03;5019971;28;20099;-60
2022/07/14 07:31:31;;;;;;;18.30;6.78;;;;;;;18.03;71.82;101998.88;5021448;28;20029;-59
2022/07/14 07:33:56;;;;;;;17.13;6.35;;;;;;;18.10;71.82;101993.66;5021058;28;20033;-60
2022/07/14 07:36:22;;;;;;;18.42;6.47;;;;;;;18.17;72.53;101996.38;5026630;28;20032;-67
2022/07/14 07:38:47;;;;;;;16.80;5.78;;;;;;;18.22;70.08;101992.03;5030694;28;20045;-65
2022/07/14 07:41:12;;;;;;;17.05;5.57;;;;;;;18.27;70.11;101992.06;5026107;28;20017;-66
2022/07/14 07:43:38;;;;;;;13.73;5.93;;;;;;;18.34;69.29;101987.75;5026062;28;20029;-66
2022/07/14 07:46:03;;;;;;;17.27;6.53;;;;;;;18.38;70.24;101985.16;5029986;28;20018;-66
2022/07/14 07:48:29;;;;;;;18.80;6.25;;;;;;;18.40;68.65;101980.75;5027845;28;20044;-65
2022/07/14 07:50:55;;;;;;;14.20;5.57;;;;;;;18.45;69.50;101975.56;5027821;28;20055;-66
2022/07/14 07:53:21;;;;;;;11.60;4.82;;;;;;;18.55;69.58;101977.41;5027930;28;20044;-66
2022/07/14 07:55:47;;;;;;;15.63;5.00;;;;;;;18.60;70.12;101980.94;5025944;28;20032;-66
2022/07/14 07:58:12;;;;;;;14.32;4.82;;;;;;;18.66;67.73;101973.97;5030768;28;20484;-66
2022/07/14 08:00:37;;;;;;;14.00;5.97;;;;;;;18.70;67.88;101981.03;5035903;28;20098;-66
2022/07/14 08:03:03;;;;;;;12.50;5.57;;;;;;;18.77;66.95;101978.44;5027466;28;20036;-65
2022/07/14 08:05:30;;;;;;;13.23;4.97;;;;;;;18.83;68.64;101972.34;5029324;28;20087;-65
2022/07/14 08:07:56;;;;;;;10.70;4.97;;;;;;;18.91;68.79;101977.69;5027319;28;20049;-65
2022/07/14 08:10:21;;;;;;;14.95;4.93;;;;;;;19.02;67.94;101969.88;5030628;28;20507;-65
2022/07/14 08:12:47;;;;;;;12.52;4.55;;;;;;;19.06;67.17;101964.59;5029333;28;20026;-65
2022/07/14 08:15:14;;;;;;;18.20;5.32;;;;;;;19.10;66.67;101955.84;5028644;28;20503;-65
2022/07/14 08:17:40;;;;;;;13.32;5.13;;;;;;;19.18;66.56;101955.88;5027584;28;20053;-65
2022/07/14 08:20:08;;;;;;;12.43;4.93;;;;;;;19.25;66.56;101955.03;5027978;28;20064;-65
2022/07/14 08:22:34;;;;;;;12.13;4.70;;;;;;;19.31;65.16;101954.19;5026371;28;20068;-66
2022/07/14 08:25:00;;;;;;;14.27;5.22;;;;;;;19.36;64.97;101949.78;5028762;28;20021;-65
2022/07/14 08:27:26;;;;;;;12.38;4.97;;;;;;;19.40;65.93;101946.28;5019449;28;20077;-66
2022/07/14 08:29:53;;;;;;;14.68;5.35;;;;;;;19.45;66.02;101946.28;5024551;28;20052;-66
2022/07/14 08:32:46;;;;;;;16.42;5.30;;;;;;;19.52;65.70;101944.56;5025420;28;20021;-66
2022/07/14 08:35:14;;;;;;;13.77;5.50;;;;;;;19.57;64.86;101951.66;5030700;28;20041;-66
2022/07/14 08:37:41;;;;;;;12.25;5.22;;;;;;;19.63;64.27;101950.78;5024421;28;20037;-66
2022/07/14 08:40:12;;;;;;;13.18;5.38;;;;;;;19.73;63.87;101941.13;5022268;28;20037;-66
2022/07/14 08:42:42;;;;;;;11.77;5.40;;;;;;;19.78;64.10;101949.94;5022282;28;20484;-66
2022/07/14 08:45:10;;;;;;;16.80;5.75;;;;;;;19.87;63.90;101957.06;5025982;28;20028;-66
2022/07/14 08:47:37;;;;;;;11.75;5.65;;;;;;;19.95;61.99;101953.56;5025205;28;20029;-66
2022/07/14 08:50:04;;;;;;;13.18;5.10;;;;;;;20.03;62.83;101956.25;5028102;28;20033;-66
2022/07/14 08:52:31;;;;;;;11.85;5.03;;;;;;;20.07;62.11;101952.69;5028814;28;20029;-66
2022/07/14 08:54:57;;;;;;;17.35;5.88;;;;;;;20.14;62.23;101953.59;5025709;28;20041;-65
2022/07/14 08:57:22;;;;;;;10.80;4.65;;;;;;;20.20;62.03;101945.66;5028402;28;20037;-65
2022/07/14 08:59:48;;;;;;;14.00;5.88;;;;;;;20.28;61.39;101949.22;5024206;28;20044;-67
2022/07/14 09:02:13;;;;;;;12.05;5.43;;;;;;;20.33;61.84;101950.09;5026286;28;20022;-65
2022/07/14 09:04:38;;;;;;;12.95;6.13;;;;;;;20.44;60.45;101949.22;5028201;28;20029;-67
2022/07/14 09:07:04;;;;;;;10.07;5.07;;;;;;;20.48;58.43;101948.34;5027433;28;20019;-66
2022/07/14 09:09:31;;;;;;;14.77;5.50;;;;;;;20.53;59.70;101937.75;5032565;28;20087;-66
2022/07/14 09:12:01;;;;;;;9.00;4.50;;;;;;;20.63;61.19;101942.16;5024993;28;20021;-66
2022/07/14 09:15:44;;;;;;;12.02;4.95;;;;;;;20.67;58.65;101934.22;5026173;28;20022;-66
2022/07/14 09:17:17;;;;;;;7.70;4.60;;;;;;;20.77;58.44;101939.50;5034265;28;20047;-66
2022/07/14 09:20:08;;;;;;;9.77;5.25;;;;;;;20.83;59.81;101936.88;5026145;28;20131;-67
2022/07/14 09:22:36;;;;;;;13.05;5.35;;;;;;;20.89;59.40;101931.56;5036639;28;20381;-67
2022/07/14 09:25:05;;;;;;;10.82;4.57;;;;;;;20.97;57.96;101937.72;5039136;28;20472;-66
2022/07/14 09:27:30;;;;;;;11.20;4.50;;;;;;;21.04;58.38;101929.75;5038598;28;20054;-66
2022/07/14 09:29:56;;;;;;;10.63;4.30;;;;;;;21.10;57.30;101935.03;5031435;28;20017;-66
2022/07/14 09:32:40;;;;;;;10.73;4.40;;;;;;;21.18;56.03;101930.59;5030837;28;20431;-66
2022/07/14 09:35:06;;;;;;;13.80;4.75;;;;;;;21.23;54.59;101925.28;5031440;28;20044;-68
2022/07/14 09:37:32;;;;;;;12.00;4.93;;;;;;;21.26;56.43;101922.63;5031638;28;20029;-67
2022/07/14 09:39:59;;;;;;;8.60;4.20;;;;;;;21.35;56.95;101928.78;5031157;28;20025;-66
2022/07/14 09:42:47;;;;;;;11.70;4.65;;;;;;;21.44;55.49;101934.94;5032165;28;20026;-67
2022/07/14 09:45:16;;;;;;;10.15;4.25;;;;;;;21.49;52.49;101927.81;5033027;28;20120;-66
2022/07/14 09:48:14;;;;;;;9.93;4.35;;;;;;;21.56;55.19;101928.72;5036858;28;20103;-67
2022/07/14 09:51:01;;;;;;;12.73;4.53;;;;;;;21.59;54.59;101924.28;5017082;28;20099;-67
2022/07/14 09:53:33;;;;;;;11.77;4.28;;;;;;;21.70;54.69;101925.09;5032038;28;20109;-66
2022/07/14 09:56:07;;;;;;;8.38;3.70;;;;;;;21.78;56.36;101933.00;5030910;28;20037;-67
2022/07/14 09:58:39;;;;;;;8.50;3.53;;;;;;;21.82;55.12;101929.44;5033053;28;20080;-67
2022/07/14 10:01:09;;;;;;;9.32;3.88;;;;;;;21.93;55.65;101934.72;5032405;28;20029;-68
2022/07/14 10:03:37;;;;;;;9.77;3.97;;;;;;;22.00;52.12;101944.41;5037646;28;20025;-68
2022/07/14 10:06:04;;;;;;;9.73;4.15;;;;;;;22.04;52.91;101942.59;5035168;28;20049;-67
2022/07/14 10:08:33;;;;;;;9.45;3.78;;;;;;;22.05;50.44;101933.75;5032563;28;20027;-68
2022/07/14 10:10:59;;;;;;;11.05;3.78;;;;;;;22.04;51.27;101924.00;5030363;28;20670;-67
2022/07/14 10:13:25;;;;;;;8.18;3.20;;;;;;;22.05;52.70;101929.31;5028845;28;20025;-68
2022/07/14 10:15:52;;;;;;;10.40;3.60;;;;;;;22.14;53.72;101938.97;5030751;28;20083;-68
2022/07/14 10:18:18;;;;;;;9.25;3.08;;;;;;;22.21;53.88;101946.00;5022163;28;20021;-67
2022/07/14 10:20:52;;;;;;;7.13;2.55;;;;;;;22.26;53.13;101939.78;5031914;28;20022;-67
2022/07/14 10:23:20;;;;;;;6.60;2.47;;;;;;;22.29;50.56;101938.00;5030661;28;20035;-68
2022/07/14 10:25:47;;;;;;;6.35;2.08;;;;;;;22.29;51.41;101932.69;5024760;28;20108;-69
2022/07/14 10:28:15;;;;;;;7.47;2.20;;;;;;;22.32;49.45;101940.66;5020392;28;20049;-66
2022/07/14 10:30:58;;;;;;;7.33;2.63;;;;;;;22.39;51.32;101937.06;5028229;28;20175;-67
2022/07/14 10:33:51;;;;;;;6.40;2.05;;;;;;;22.51;50.99;101940.53;5033670;28;20025;-66
2022/07/14 10:36:23;;;;;;;6.28;2.45;;;;;;;22.63;48.67;101945.69;5031440;28;20066;-67
2022/07/14 10:39:16;;;;;;;6.68;2.55;;;;;;;22.68;49.69;101943.00;5029170;28;20022;-66
2022/07/14 10:41:59;;;;;;;7.55;2.72;;;;;;;22.72;49.59;101945.63;5031471;28;20033;-67
2022/07/14 10:44:29;;;;;;;7.53;2.70;;;;;;;22.78;51.12;101944.66;5024316;28;20075;-67
2022/07/14 10:49:20;;;;;;;8.20;2.53;;;;;;;22.86;48.20;101941.97;5050129;22;20065;-58
2022/07/14 10:51:52;;;;;;;7.45;2.83;;;;;;;22.87;49.44;101941.03;5036238;28;20369;-60
2022/07/14 10:54:28;;;;;;;6.97;2.63;;;;;;;22.99;52.12;101938.25;5035823;28;20083;-58
2022/07/14 10:57:14;;;;;;;5.28;2.67;;;;;;;23.09;52.03;101947.91;5031089;28;20021;-58
2022/07/14 10:59:42;;;;;;;7.53;2.38;;;;;;;23.14;50.64;101939.03;5038760;28;20053;-57
2022/07/14 11:02:13;;;;;;;8.23;2.42;;;;;;;23.16;48.42;101934.56;5038815;28;20040;-58
2022/07/14 11:05:00;;;;;;;6.90;2.67;;;;;;;23.22;48.89;101932.72;5041856;28;20040;-57
2022/07/14 11:07:58;;;;;;;8.75;2.60;;;;;;;23.24;48.74;101932.69;5039617;28;20035;-58
2022/07/14 11:10:24;;;;;;;;;;;;;;;23.31;51.17;101937.06;5041546;28;20525;-58
2022/07/14 11:13:05;;;;;;;7.10;2.42;;;;;;;23.44;49.96;101943.97;5031458;28;19965;-59
2022/07/14 11:15:53;;;;;;;5.55;2.60;;;;;;;23.57;49.84;101942.03;5039894;28;20041;-60
2022/07/14 11:18:18;;;;;;;7.10;3.20;;;;;;;23.64;47.91;101936.63;5036362;28;20469;-58
2022/07/14 11:21:00;;;;;;;7.60;2.80;;;;;;;23.69;47.77;101935.66;5035284;28;20124;-59
2022/07/14 11:23:29;;;;;;;7.13;2.50;;;;;;;23.74;48.67;101940.94;5043476;28;20033;-60
2022/07/14 11:25:56;;;;;;;7.97;2.72;;;;;;;23.80;48.43;101935.53;5032875;28;20104;-60
2022/07/14 11:28:52;;;;;;;6.10;2.50;;;;;;;23.87;47.99;101931.00;5023009;28;20415;-59